Time;durP1;ratioP1;P1;durP2;ratioP2;P2;SDS_P1;SDS_P2;PMS_P1;PMS_P2;Temp;Humidity;BMP_temperature;BMP_pressure;BME280_temperature;BME280_humidity;BME280_pressure;Samples;Min_cycle;Max_cycle;Signal;HPM_P1;HPM_P2
2021/06/03 04:01:18;;;;;;;7.83;7.33;;;17.20;99.90;;;;;;5518351;23;20508;-70
2021/06/03 04:03:45;;;;;;;7.60;7.10;;;17.20;99.90;;;;;;4937083;29;20576;-70
2021/06/03 04:06:11;;;;;;;7.13;6.73;;;17.20;99.90;;;;;;4937012;29;20505;-70
2021/06/03 04:08:37;;;;;;;6.83;6.53;;;17.20;99.90;;;;;;4937014;29;20886;-70
2021/06/03 04:11:03;;;;;;;7.70;7.20;;;17.30;99.90;;;;;;4938414;29;20540;-70
2021/06/03 04:13:30;;;;;;;7.37;6.97;;;17.30;99.90;;;;;;4937885;29;20465;-70
2021/06/03 04:15:56;;;;;;;7.03;6.60;;;17.30;99.90;;;;;;4939420;29;20472;-70
2021/06/03 04:18:24;;;;;;;6.90;6.50;;;17.30;99.90;;;;;;4940355;29;20468;-70
2021/06/03 04:20:50;;;;;;;7.40;7.00;;;17.40;99.90;;;;;;4937328;29;20485;-70
2021/06/03 04:23:16;;;;;;;8.77;8.27;;;17.40;99.90;;;;;;4937156;29;20469;-69
2021/06/03 04:25:42;;;;;;;7.20;6.80;;;17.40;99.90;;;;;;4938414;29;20544;-69
2021/06/03 04:28:09;;;;;;;7.40;7.00;;;17.40;99.90;;;;;;4938420;29;20472;-68
2021/06/03 04:30:39;;;;;;;7.20;6.80;;;17.50;99.90;;;;;;4937895;29;20490;-69
2021/06/03 04:33:06;;;;;;;7.83;7.23;;;17.60;99.90;;;;;;4938009;29;20998;-69
2021/06/03 04:35:33;;;;;;;7.30;6.90;;;17.60;99.90;;;;;;4936512;29;20465;-69
2021/06/03 04:38:00;;;;;;;7.67;7.17;;;17.80;99.90;;;;;;4936516;29;20469;-69
2021/06/03 04:40:26;;;;;;;7.37;6.90;;;18.20;99.90;;;;;;4936762;29;20461;-69
2021/06/03 04:42:53;;;;;;;6.80;6.50;;;18.60;99.90;;;;;;4936622;29;20473;-70
2021/06/03 04:45:21;;;;;;;7.70;7.10;;;19.20;99.90;;;;;;4936425;29;20564;-70
2021/06/03 04:47:48;;;;;;;6.80;6.50;;;19.30;99.90;;;;;;4936553;29;20536;-69
2021/06/03 04:50:16;;;;;;;7.60;7.10;;;19.20;99.90;;;;;;4936030;29;20525;-69
2021/06/03 04:52:45;;;;;;;6.67;6.37;;;19.10;99.90;;;;;;4935910;29;20552;-69
2021/06/03 04:55:14;;;;;;;7.83;7.33;;;19.30;99.90;;;;;;4936452;29;20962;-69
2021/06/03 04:57:41;;;;;;;8.00;7.60;;;19.60;99.90;;;;;;4936481;29;20529;-69
2021/06/03 05:00:10;;;;;;;7.10;6.67;;;19.90;99.90;;;;;;4936128;29;20915;-69
2021/06/03 05:02:36;;;;;;;6.50;6.20;;;20.60;99.90;;;;;;4935953;29;20481;-70
2021/06/03 05:05:04;;;;;;;7.00;6.70;;;20.90;99.90;;;;;;4935848;29;20525;-70
2021/06/03 05:07:30;;;;;;;6.40;6.20;;;21.20;99.90;;;;;;4935691;29;20580;-69
2021/06/03 05:09:57;;;;;;;6.53;6.13;;;21.50;99.90;;;;;;4936043;29;20500;-69
2021/06/03 05:12:24;;;;;;;11.10;10.50;;;21.60;99.90;;;;;;4935907;29;20485;-70
2021/06/03 05:14:50;;;;;;;7.83;7.33;;;21.90;99.90;;;;;;4936145;29;20828;-69
2021/06/03 05:17:16;;;;;;;6.07;5.83;;;22.10;99.90;;;;;;4936149;29;20469;-69
2021/06/03 05:19:42;;;;;;;6.60;6.40;;;21.90;99.90;;;;;;4935778;29;20466;-70
2021/06/03 05:22:09;;;;;;;6.20;5.70;;;21.70;99.90;;;;;;4935330;29;20489;-70
2021/06/03 05:24:35;;;;;;;6.50;6.10;;;21.70;99.90;;;;;;4936135;29;20458;-70
2021/06/03 05:27:04;;;;;;;6.90;6.67;;;21.30;99.90;;;;;;4935740;29;20911;-69
2021/06/03 05:29:30;;;;;;;7.50;7.10;;;20.90;99.90;;;;;;4936002;29;20485;-70
2021/06/03 05:31:57;;;;;;;7.60;7.00;;;20.90;99.90;;;;;;4935518;29;20485;-69
2021/06/03 05:34:23;;;;;;;7.37;6.97;;;20.80;99.90;;;;;;4935913;29;20517;-70
2021/06/03 05:36:50;;;;;;;7.50;6.77;;;20.80;99.90;;;;;;4935029;29;20465;-70
2021/06/03 05:39:16;;;;;;;7.30;6.90;;;20.90;99.90;;;;;;4935659;29;20465;-70
2021/06/03 05:41:43;;;;;;;7.20;6.60;;;21.20;99.90;;;;;;4935811;29;20482;-69
2021/06/03 05:44:12;;;;;;;6.50;6.20;;;21.00;99.90;;;;;;4935537;29;20469;-70
2021/06/03 05:46:39;;;;;;;8.70;7.07;;;20.90;99.90;;;;;;4935495;29;20878;-69
2021/06/03 05:49:06;;;;;;;7.50;7.10;;;20.70;99.90;;;;;;4935895;29;20489;-69
2021/06/03 05:51:33;;;;;;;8.77;8.17;;;20.50;99.90;;;;;;4934776;29;20489;-70
2021/06/03 05:54:00;;;;;;;7.20;6.90;;;20.40;99.90;;;;;;4935241;29;20477;-70
2021/06/03 05:56:26;;;;;;;7.00;6.60;;;20.30;99.90;;;;;;4935627;29;20474;-70
2021/06/03 05:58:53;;;;;;;7.53;7.03;;;20.50;99.90;;;;;;4935306;29;20473;-70
2021/06/03 06:01:21;;;;;;;7.93;7.37;;;20.70;99.90;;;;;;4935236;29;20504;-70
2021/06/03 06:03:51;;;;;;;6.90;6.60;;;20.80;99.90;;;;;;4935219;29;20492;-70
2021/06/03 06:06:23;;;;;;;7.37;6.97;;;20.80;99.90;;;;;;4935030;29;20537;-69
2021/06/03 06:08:51;;;;;;;7.23;6.83;;;20.70;99.90;;;;;;4934798;29;20486;-68
2021/06/03 06:11:17;;;;;;;7.80;7.40;;;20.90;99.90;;;;;;4935095;29;20496;-68
2021/06/03 06:13:44;;;;;;;7.67;7.20;;;20.90;99.90;;;;;;4934813;29;20492;-69
2021/06/03 06:16:10;;;;;;;6.83;6.33;;;21.10;99.90;;;;;;4934981;29;20521;-69
2021/06/03 06:18:39;;;;;;;6.73;6.43;;;21.10;99.90;;;;;;4935240;29;20462;-69
2021/06/03 06:21:05;;;;;;;8.53;7.73;;;21.20;99.90;;;;;;4934726;29;21009;-70
2021/06/03 06:23:34;;;;;;;7.30;6.90;;;21.10;99.90;;;;;;4934565;29;20829;-69
2021/06/03 06:26:00;;;;;;;7.43;7.03;;;21.10;99.90;;;;;;4934890;29;20466;-68
2021/06/03 06:28:26;;;;;;;7.43;7.07;;;21.00;99.90;;;;;;4934695;29;20476;-69
2021/06/03 06:30:52;;;;;;;7.03;6.63;;;21.00;99.90;;;;;;4935111;29;20539;-68
2021/06/03 06:33:19;;;;;;;6.43;6.10;;;21.00;99.90;;;;;;4934847;29;20473;-68
2021/06/03 06:35:49;;;;;;;8.37;7.80;;;21.10;99.90;;;;;;4934298;29;20528;-68
2021/06/03 06:38:15;;;;;;;7.43;7.03;;;20.90;99.90;;;;;;4934422;29;20984;-68
2021/06/03 06:40:42;;;;;;;7.33;6.93;;;20.90;99.90;;;;;;4934701;29;20489;-68
2021/06/03 06:43:08;;;;;;;7.70;7.20;;;21.10;99.90;;;;;;4934943;29;20520;-69
2021/06/03 06:45:37;;;;;;;6.90;6.60;;;21.30;99.90;;;;;;4934233;29;20468;-68
2021/06/03 06:48:04;;;;;;;6.77;6.40;;;21.60;99.90;;;;;;4935002;29;20578;-68
2021/06/03 06:50:30;;;;;;;6.93;6.43;;;21.50;99.90;;;;;;4934153;29;20585;-68
2021/06/03 06:52:58;;;;;;;7.10;6.60;;;21.50;99.90;;;;;;4934232;29;20481;-68
2021/06/03 06:55:24;;;;;;;7.40;7.00;;;21.50;99.90;;;;;;4934755;29;20844;-69
2021/06/03 06:57:52;;;;;;;7.10;6.70;;;21.70;99.90;;;;;;4934909;29;20883;-70
2021/06/03 07:00:19;;;;;;;7.80;7.30;;;21.50;99.90;;;;;;4934935;29;20469;-68
2021/06/03 07:02:45;;;;;;;6.93;6.53;;;21.70;99.90;;;;;;4934677;29;20528;-68
2021/06/03 07:05:13;;;;;;;6.97;6.57;;;21.70;99.90;;;;;;4934403;29;20470;-68
2021/06/03 07:07:39;;;;;;;6.27;5.97;;;21.80;99.90;;;;;;4934324;28;20865;-68
2021/06/03 07:10:08;;;;;;;6.70;6.40;;;22.10;99.90;;;;;;4934352;29;20492;-67
2021/06/03 07:12:35;;;;;;;7.73;7.20;;;22.20;99.90;;;;;;4934309;29;20470;-67
2021/06/03 07:15:01;;;;;;;7.20;6.70;;;22.60;99.90;;;;;;4934761;29;20481;-67
2021/06/03 07:17:28;;;;;;;6.67;6.37;;;22.90;99.90;;;;;;4934625;29;20538;-67
2021/06/03 07:19:54;;;;;;;6.87;6.47;;;23.00;99.90;;;;;;4934073;29;20536;-69
2021/06/03 07:22:20;;;;;;;7.53;7.17;;;23.40;99.90;;;;;;4933954;29;20512;-68
2021/06/03 07:24:46;;;;;;;7.60;7.20;;;23.70;99.90;;;;;;4934442;29;20485;-70
2021/06/03 07:27:14;;;;;;;6.43;6.13;;;24.00;99.90;;;;;;4934630;29;20469;-69
2021/06/03 07:29:41;;;;;;;6.97;6.57;;;23.90;99.90;;;;;;4934732;29;20524;-68
2021/06/03 07:32:07;;;;;;;5.97;5.77;;;24.10;99.90;;;;;;4934423;29;20548;-69
2021/06/03 07:34:33;;;;;;;7.00;6.60;;;24.30;99.90;;;;;;4934624;29;20469;-68
2021/06/03 07:37:00;;;;;;;6.50;5.90;;;24.40;99.90;;;;;;4933407;29;20817;-68
2021/06/03 07:39:28;;;;;;;7.00;6.70;;;24.40;99.90;;;;;;4934829;29;20453;-68
2021/06/03 07:41:55;;;;;;;6.37;6.17;;;24.40;99.90;;;;;;4934554;29;20576;-68
2021/06/03 07:44:22;;;;;;;6.27;5.97;;;24.60;99.90;;;;;;4934516;29;20480;-68
2021/06/03 07:46:48;;;;;;;6.43;6.00;;;25.00;99.90;;;;;;4934405;29;20524;-69
2021/06/03 07:49:15;;;;;;;7.10;6.57;;;25.20;99.90;;;;;;4934268;29;20497;-68
2021/06/03 07:51:41;;;;;;;7.00;6.60;;;25.40;99.60;;;;;;4933670;29;20521;-69
2021/06/03 07:54:08;;;;;;;6.10;5.90;;;25.20;99.10;;;;;;4934306;29;20500;-68
2021/06/03 07:56:35;;;;;;;6.30;6.00;;;25.10;99.10;;;;;;4937075;29;20469;-68
2021/06/03 07:59:01;;;;;;;5.93;5.70;;;25.00;99.70;;;;;;4937877;29;20513;-69
2021/06/03 08:01:29;;;;;;;5.93;5.73;;;25.40;99.70;;;;;;4937629;29;20541;-69
2021/06/03 08:03:56;;;;;;;6.30;6.00;;;25.50;98.80;;;;;;4937525;29;20473;-69
2021/06/03 08:06:22;;;;;;;6.90;6.60;;;25.60;98.40;;;;;;4937024;28;21029;-69
2021/06/03 08:08:49;;;;;;;5.93;5.63;;;26.30;97.90;;;;;;4937345;29;20498;-69
2021/06/03 08:11:16;;;;;;;6.27;5.97;;;26.60;97.20;;;;;;4937642;29;20559;-69
2021/06/03 08:13:42;;;;;;;6.80;6.50;;;26.90;96.50;;;;;;4937450;29;20903;-68
2021/06/03 08:16:08;;;;;;;6.40;5.97;;;27.20;95.80;;;;;;4937978;29;20510;-69
2021/06/03 08:18:36;;;;;;;5.67;5.37;;;27.00;95.10;;;;;;4937190;29;20470;-68
2021/06/03 08:21:04;;;;;;;6.50;6.20;;;26.80;94.90;;;;;;4937091;29;20492;-69
2021/06/03 08:23:30;;;;;;;6.77;6.43;;;26.80;95.40;;;;;;4936787;29;20469;-69
2021/06/03 08:25:56;;;;;;;5.83;5.63;;;26.70;95.40;;;;;;4937612;29;20974;-67
2021/06/03 08:28:23;;;;;;;5.70;5.50;;;26.60;95.40;;;;;;4937367;29;20524;-69
2021/06/03 08:30:49;;;;;;;6.10;5.90;;;26.60;95.30;;;;;;4937378;29;20500;-68
2021/06/03 08:33:16;;;;;;;6.20;5.90;;;26.30;94.90;;;;;;4936711;29;20471;-69
2021/06/03 08:35:43;;;;;;;6.60;6.20;;;26.00;95.20;;;;;;4936608;29;20466;-69
2021/06/03 08:38:12;;;;;;;7.77;7.37;;;26.00;96.00;;;;;;4936535;29;20477;-69
2021/06/03 08:40:42;;;;;;;6.20;5.90;;;26.00;95.80;;;;;;4936833;29;20497;-69
2021/06/03 08:43:10;;;;;;;6.70;6.30;;;25.90;95.60;;;;;;4936619;29;20469;-70
2021/06/03 08:45:39;;;;;;;6.47;6.10;;;25.80;96.00;;;;;;4936687;29;20958;-69
2021/06/03 08:48:06;;;;;;;6.30;6.10;;;25.90;95.80;;;;;;4936561;29;20470;-70
2021/06/03 08:50:35;;;;;;;5.93;5.53;;;25.70;96.20;;;;;;4936230;29;20619;-69
2021/06/03 08:53:03;;;;;;;6.57;6.27;;;25.50;96.70;;;;;;4936137;29;20469;-69
2021/06/03 08:58:17;;;;;;;6.20;5.67;;;25.90;96.70;;;;;;4936523;29;20457;-68
2021/06/03 09:00:45;;;;;;;6.07;5.87;;;25.90;95.70;;;;;;4936401;29;20493;-69
2021/06/03 09:03:12;;;;;;;6.30;6.03;;;25.80;95.60;;;;;;4936645;29;20469;-70
2021/06/03 09:05:39;;;;;;;6.17;5.77;;;25.70;96.00;;;;;;4936006;29;20469;-69
2021/06/03 09:08:20;;;;;;;7.93;7.53;;;25.60;96.30;;;;;;4935531;29;20533;-68
2021/06/03 09:10:49;;;;;;;5.80;5.60;;;25.50;96.20;;;;;;4936282;29;20508;-70
2021/06/03 09:13:17;;;;;;;6.40;5.87;;;25.30;96.40;;;;;;4936460;29;20517;-69
2021/06/03 09:15:45;;;;;;;6.50;6.23;;;25.40;96.60;;;;;;4936497;29;20473;-69
2021/06/03 09:18:13;;;;;;;6.33;5.70;;;25.40;96.20;;;;;;4936747;29;20537;-69
2021/06/03 09:20:41;;;;;;;6.77;6.30;;;25.50;96.10;;;;;;4935781;29;20489;-69
2021/06/03 09:23:23;;;;;;;6.73;6.33;;;25.40;96.00;;;;;;4935500;29;20533;-69
2021/06/03 09:25:50;;;;;;;6.37;6.17;;;25.40;96.20;;;;;;4936034;29;20925;-69
2021/06/03 09:28:23;;;;;;;5.40;5.30;;;25.30;96.40;;;;;;4936189;29;20471;-69
2021/06/03 09:30:55;;;;;;;6.27;5.67;;;25.30;96.40;;;;;;4935740;29;20494;-69
2021/06/03 09:33:52;;;;;;;6.63;6.33;;;25.30;96.30;;;;;;4935714;29;20470;-69
2021/06/03 09:36:21;;;;;;;6.07;5.77;;;25.30;96.60;;;;;;4935352;29;20465;-70
2021/06/03 09:38:53;;;;;;;5.83;5.63;;;25.30;96.70;;;;;;4935443;29;20498;-70
2021/06/03 09:41:21;;;;;;;6.67;6.30;;;25.40;96.90;;;;;;4935814;29;20489;-70
2021/06/03 09:43:47;;;;;;;6.60;6.27;;;25.50;97.10;;;;;;4935600;29;20829;-69
2021/06/03 09:46:15;;;;;;;6.07;5.80;;;25.60;96.80;;;;;;4935636;29;20466;-70
2021/06/03 09:48:43;;;;;;;6.33;6.03;;;25.60;96.70;;;;;;4936095;29;20474;-70
2021/06/03 09:51:24;;;;;;;6.17;5.97;;;25.60;96.50;;;;;;4935305;29;20489;-70
2021/06/03 09:54:01;;;;;;;6.77;6.23;;;25.50;96.00;;;;;;4935068;29;20470;-70
2021/06/03 09:56:31;;;;;;;5.67;5.37;;;25.50;95.60;;;;;;4936794;29;20476;-68
2021/06/03 09:59:00;;;;;;;6.20;5.90;;;25.50;94.60;;;;;;4937009;29;20897;-69
2021/06/03 10:01:48;;;;;;;6.07;5.77;;;25.40;94.80;;;;;;4935244;29;20589;-70
2021/06/03 10:04:16;;;;;;;5.97;5.67;;;25.30;94.40;;;;;;4935465;29;20473;-70
2021/06/03 10:06:57;;;;;;;6.03;5.67;;;25.50;94.90;;;;;;4934629;28;20568;-69
2021/06/03 10:09:42;;;;;;;7.00;6.40;;;25.60;94.50;;;;;;4935662;29;20485;-70
2021/06/03 10:12:12;;;;;;;6.00;5.60;;;25.50;94.70;;;;;;4935071;29;20548;-70
2021/06/03 10:14:39;;;;;;;6.20;5.80;;;25.40;94.50;;;;;;4935624;29;20973;-69
2021/06/03 10:17:18;;;;;;;6.17;5.77;;;25.30;94.70;;;;;;4935179;29;20474;-70
2021/06/03 10:19:47;;;;;;;5.60;5.40;;;25.60;95.10;;;;;;4934185;29;20646;-68
2021/06/03 10:22:17;;;;;;;5.67;5.47;;;25.70;94.80;;;;;;4934694;29;20485;-70
2021/06/03 10:24:48;;;;;;;6.77;6.37;;;25.70;94.00;;;;;;4935340;29;20489;-69
2021/06/03 10:27:16;;;;;;;6.43;5.87;;;25.60;94.20;;;;;;4935220;29;20477;-69
2021/06/03 10:29:44;;;;;;;5.30;4.80;;;25.50;94.40;;;;;;4934992;29;20485;-69
2021/06/03 10:32:11;;;;;;;6.30;5.87;;;25.40;94.20;;;;;;4934659;29;20489;-69
2021/06/03 10:34:37;;;;;;;5.73;5.43;;;25.40;94.50;;;;;;4935053;29;20501;-69
2021/06/03 10:37:04;;;;;;;5.83;5.63;;;25.30;94.40;;;;;;4933976;29;20473;-69
2021/06/03 10:39:32;;;;;;;6.17;5.83;;;25.30;94.60;;;;;;4935020;29;20551;-69
2021/06/03 10:41:59;;;;;;;7.30;6.80;;;25.30;94.70;;;;;;4934716;29;20537;-69
2021/06/03 10:44:27;;;;;;;6.10;5.90;;;25.40;94.80;;;;;;4934605;29;20544;-69
2021/06/03 10:46:54;;;;;;;25.23;8.40;;;25.60;95.30;;;;;;4934965;29;20472;-69
2021/06/03 10:49:22;;;;;;;5.70;5.50;;;25.50;95.10;;;;;;4934795;29;20485;-70
2021/06/03 10:51:48;;;;;;;5.93;5.60;;;25.50;95.10;;;;;;4933923;29;20564;-69
2021/06/03 10:54:15;;;;;;;5.83;5.63;;;25.60;95.10;;;;;;4934830;29;20574;-68
2021/06/03 10:56:57;;;;;;;6.97;6.63;;;25.60;95.50;;;;;;4934756;29;20553;-68
2021/06/03 10:59:33;;;;;;;6.00;5.70;;;25.50;95.10;;;;;;4934842;29;20466;-67
2021/06/03 11:02:00;;;;;;;5.90;5.50;;;25.40;95.50;;;;;;4934500;29;20587;-68
2021/06/03 11:04:27;;;;;;;6.07;5.67;;;25.50;95.60;;;;;;4934732;29;20942;-68
2021/06/03 11:06:54;;;;;;;6.30;6.03;;;25.60;95.10;;;;;;4933770;28;20568;-69
2021/06/03 11:09:25;;;;;;;7.23;6.93;;;25.60;95.20;;;;;;4934724;29;20500;-69
2021/06/03 11:12:06;;;;;;;6.83;6.30;;;25.50;95.50;;;;;;4934928;29;20489;-69
2021/06/03 11:14:59;;;;;;;7.43;6.80;;;25.50;95.70;;;;;;4934907;29;20525;-68
2021/06/03 11:17:57;;;;;;;6.03;5.73;;;25.60;95.40;;;;;;4934815;29;20473;-69
2021/06/03 11:20:42;;;;;;;5.90;5.70;;;25.60;95.70;;;;;;4934159;29;20829;-70
2021/06/03 11:23:56;;;;;;;6.37;6.00;;;25.60;95.60;;;;;;4934274;29;20822;-70
2021/06/03 11:26:51;;;;;;;6.80;6.40;;;25.60;95.40;;;;;;4934859;29;20488;-70
2021/06/03 11:29:20;;;;;;;6.60;6.20;;;25.60;95.60;;;;;;4934559;29;20485;-70
2021/06/03 11:31:50;;;;;;;6.47;6.13;;;25.50;95.80;;;;;;4937896;29;21001;-69
2021/06/03 11:34:19;;;;;;;5.87;5.50;;;25.50;95.80;;;;;;4938145;29;20484;-70
2021/06/03 11:36:57;;;;;;;6.23;5.83;;;25.50;95.60;;;;;;4936974;29;20470;-70
2021/06/03 11:39:39;;;;;;;6.80;6.40;;;25.50;95.60;;;;;;4938618;29;20823;-70
2021/06/03 11:42:26;;;;;;;5.97;5.77;;;25.60;96.40;;;;;;4937680;29;20651;-69
2021/06/03 11:45:26;;;;;;;6.40;6.10;;;25.60;95.70;;;;;;4937803;29;20465;-70
2021/06/03 11:48:19;;;;;;;6.47;6.20;;;25.60;96.00;;;;;;4938623;29;20935;-70
2021/06/03 11:51:10;;;;;;;6.60;6.30;;;25.80;96.00;;;;;;4935503;29;20493;-70
2021/06/03 11:53:51;;;;;;;6.40;6.10;;;25.80;95.30;;;;;;4935744;29;20469;-70
2021/06/03 11:56:20;;;;;;;7.70;6.50;;;25.80;95.40;;;;;;4938202;29;20457;-69
2021/06/03 11:58:52;;;;;;;6.50;6.13;;;25.80;95.20;;;;;;4938314;29;20465;-69
2021/06/03 12:01:36;;;;;;;6.63;6.30;;;25.90;95.10;;;;;;4937876;29;20506;-69
2021/06/03 12:04:20;;;;;;;6.30;5.37;;;26.00;95.10;;;;;;4938060;29;20481;-69
2021/06/03 12:06:49;;;;;;;6.20;5.90;;;26.00;95.20;;;;;;4936982;28;20520;-69
2021/06/03 12:09:28;;;;;;;5.93;5.60;;;26.10;95.10;;;;;;4938084;29;20580;-70
2021/06/03 12:11:55;;;;;;;6.03;5.70;;;26.10;95.20;;;;;;4937494;29;20485;-69
2021/06/03 12:14:24;;;;;;;6.33;6.07;;;26.20;94.80;;;;;;4937763;29;20466;-69
2021/06/03 12:16:51;;;;;;;5.80;5.40;;;26.20;94.90;;;;;;4937476;29;20992;-69
2021/06/03 12:19:21;;;;;;;6.60;6.30;;;26.40;94.70;;;;;;4937660;29;20524;-69
2021/06/03 12:21:50;;;;;;;6.50;6.20;;;26.50;94.40;;;;;;4936372;29;20548;-69
2021/06/03 12:24:17;;;;;;;6.20;5.90;;;26.60;94.50;;;;;;4937214;29;20473;-69
2021/06/03 12:26:43;;;;;;;6.00;5.70;;;26.60;94.70;;;;;;4937116;29;20532;-69
2021/06/03 12:29:23;;;;;;;6.60;6.20;;;26.40;94.10;;;;;;4937456;29;20522;-69
2021/06/03 12:31:50;;;;;;;5.63;5.43;;;26.30;94.20;;;;;;4937047;29;20507;-69
2021/06/03 12:34:21;;;;;;;6.37;5.97;;;26.30;94.50;;;;;;4936918;29;20473;-69
2021/06/03 12:36:48;;;;;;;6.23;5.83;;;26.20;94.60;;;;;;4936275;29;20505;-69
2021/06/03 12:39:14;;;;;;;5.73;5.43;;;26.20;94.80;;;;;;4937049;29;20492;-69
2021/06/03 12:41:42;;;;;;;6.13;5.73;;;26.20;94.70;;;;;;4936194;29;20494;-69
2021/06/03 12:44:10;;;;;;;6.03;5.53;;;26.10;94.80;;;;;;4936997;29;20472;-69
2021/06/03 12:46:38;;;;;;;6.50;6.07;;;26.10;94.60;;;;;;4937128;29;20901;-69
2021/06/03 12:49:09;;;;;;;6.40;5.87;;;26.10;94.80;;;;;;4936800;29;20595;-69
2021/06/03 12:51:45;;;;;;;5.87;5.53;;;26.10;94.90;;;;;;4936235;29;20486;-69
2021/06/03 12:54:12;;;;;;;6.23;5.83;;;26.20;94.50;;;;;;4936840;29;20465;-69
2021/06/03 12:56:38;;;;;;;5.80;5.50;;;26.30;94.50;;;;;;4936858;29;20498;-68
2021/06/03 12:59:18;;;;;;;6.73;6.30;;;26.40;94.40;;;;;;4936693;29;20477;-68
2021/06/03 13:01:51;;;;;;;6.17;5.87;;;26.60;94.40;;;;;;4936546;29;20895;-68
2021/06/03 13:04:17;;;;;;;6.43;6.13;;;26.60;94.00;;;;;;4936418;29;20450;-68
2021/06/03 13:06:47;;;;;;;6.80;6.50;;;26.60;94.00;;;;;;4935651;29;20858;-69
2021/06/03 13:09:13;;;;;;;5.40;5.10;;;26.60;94.00;;;;;;4936576;29;20525;-67
2021/06/03 13:11:41;;;;;;;6.00;5.80;;;26.60;94.30;;;;;;4935975;29;20877;-70
2021/06/03 13:14:13;;;;;;;5.80;5.40;;;26.60;93.80;;;;;;4936084;29;20469;-68
2021/06/03 13:16:40;;;;;;;5.97;5.60;;;26.60;94.40;;;;;;4936158;29;20462;-69
2021/06/03 13:19:13;;;;;;;6.40;6.10;;;26.60;94.70;;;;;;4936586;29;20497;-69
2021/06/03 13:21:40;;;;;;;5.90;5.60;;;26.70;94.00;;;;;;4935667;29;20552;-70
2021/06/03 13:24:23;;;;;;;5.47;5.17;;;26.80;93.70;;;;;;4936431;29;20474;-68
2021/06/03 13:26:49;;;;;;;5.90;5.40;;;26.80;93.50;;;;;;4935792;29;20480;-69
2021/06/03 13:29:17;;;;;;;6.10;5.80;;;26.90;93.80;;;;;;4936012;29;20469;-70
2021/06/03 13:31:43;;;;;;;6.03;5.83;;;27.00;93.80;;;;;;4936127;29;20477;-69
2021/06/03 13:34:32;;;;;;;5.80;5.50;;;27.20;93.60;;;;;;4936035;29;20512;-68
2021/06/03 13:37:06;;;;;;;6.37;5.90;;;27.30;93.50;;;;;;4934930;29;20473;-69
2021/06/03 13:39:35;;;;;;;6.20;6.00;;;27.30;92.60;;;;;;4935910;29;20533;-69
2021/06/03 13:42:13;;;;;;;6.77;6.47;;;27.20;92.70;;;;;;4935732;29;20482;-69
2021/06/03 13:44:55;;;;;;;5.90;5.60;;;27.30;92.30;;;;;;4936222;29;20512;-69
2021/06/03 13:47:39;;;;;;;5.50;5.20;;;27.30;92.50;;;;;;4935703;29;20469;-70
2021/06/03 13:50:35;;;;;;;6.60;5.90;;;27.30;91.70;;;;;;4935142;29;20496;-70
2021/06/03 13:53:07;;;;;;;6.70;6.20;;;27.30;92.30;;;;;;4935031;29;20896;-70
2021/06/03 13:55:41;;;;;;;6.07;5.80;;;27.30;92.30;;;;;;4935771;29;20553;-70
2021/06/03 13:58:07;;;;;;;5.83;5.40;;;27.40;91.40;;;;;;4935493;29;20555;-69
2021/06/03 14:00:37;;;;;;;6.27;5.93;;;27.50;91.70;;;;;;4935419;29;21178;-69
2021/06/03 14:03:10;;;;;;;6.00;5.80;;;27.40;91.50;;;;;;4935376;29;20476;-69
2021/06/03 14:05:39;;;;;;;6.40;5.93;;;27.50;91.70;;;;;;4935185;29;20479;-69
2021/06/03 14:08:13;;;;;;;6.20;5.60;;;27.70;91.50;;;;;;4934988;29;20488;-70
2021/06/03 14:11:00;;;;;;;5.90;5.53;;;27.80;91.30;;;;;;4935381;29;20497;-69
2021/06/03 14:13:28;;;;;;;6.33;5.90;;;27.90;91.00;;;;;;4934945;29;20481;-69
2021/06/03 14:15:54;;;;;;;6.13;5.57;;;27.80;90.40;;;;;;4935484;29;20828;-70
2021/06/03 14:18:25;;;;;;;5.27;5.17;;;27.70;90.20;;;;;;4935416;29;20469;-70
2021/06/03 14:20:51;;;;;;;5.87;5.60;;;27.60;90.50;;;;;;4935179;29;20854;-70
2021/06/03 14:23:18;;;;;;;5.63;5.33;;;27.50;90.60;;;;;;4934492;29;21021;-69
2021/06/03 14:25:44;;;;;;;5.70;5.40;;;27.50;90.70;;;;;;4935275;29;20497;-69
2021/06/03 14:28:14;;;;;;;6.27;6.07;;;27.30;90.70;;;;;;4935007;29;20476;-69
2021/06/03 14:30:48;;;;;;;5.70;5.37;;;27.30;91.30;;;;;;4934878;29;20493;-70
2021/06/03 14:33:18;;;;;;;4.97;4.87;;;27.30;91.20;;;;;;4934923;29;20469;-70
2021/06/03 14:35:46;;;;;;;6.07;5.83;;;27.20;90.50;;;;;;4934901;29;20935;-69
2021/06/03 14:38:14;;;;;;;6.33;5.90;;;27.10;90.40;;;;;;4935277;29;20490;-69
2021/06/03 14:40:42;;;;;;;7.07;5.67;;;27.00;90.60;;;;;;4934788;29;20580;-69
2021/06/03 14:43:10;;;;;;;5.60;5.17;;;27.00;90.40;;;;;;4934721;29;20465;-69
2021/06/03 14:45:39;;;;;;;5.80;5.57;;;27.00;90.00;;;;;;4935037;29;20462;-69
2021/06/03 14:48:06;;;;;;;5.77;5.53;;;26.90;90.50;;;;;;4934961;29;20465;-70
2021/06/03 14:50:34;;;;;;;5.83;5.33;;;26.90;90.50;;;;;;4933908;29;21065;-70
2021/06/03 14:53:02;;;;;;;5.80;5.50;;;26.90;90.50;;;;;;4934153;29;20465;-69
2021/06/03 14:55:31;;;;;;;5.40;5.10;;;26.80;90.80;;;;;;4934969;29;20465;-69
2021/06/03 14:57:58;;;;;;;5.53;5.23;;;26.70;91.20;;;;;;4935629;29;20980;-69
2021/06/03 15:00:27;;;;;;;5.90;5.50;;;26.70;91.00;;;;;;4935294;29;20453;-69
2021/06/03 15:02:56;;;;;;;5.67;5.47;;;26.70;91.10;;;;;;4935250;29;20466;-69
2021/06/03 15:05:23;;;;;;;5.73;5.43;;;26.70;91.30;;;;;;4935581;29;20499;-69
2021/06/03 15:07:50;;;;;;;5.30;5.10;;;26.70;91.40;;;;;;4938558;29;20473;-69
2021/06/03 15:10:18;;;;;;;5.50;5.30;;;26.70;91.60;;;;;;4938566;29;20485;-69
2021/06/03 15:12:45;;;;;;;5.57;5.23;;;26.70;91.40;;;;;;4938556;29;20472;-69
2021/06/03 15:15:14;;;;;;;5.80;5.50;;;26.80;91.60;;;;;;4938664;29;20469;-69
2021/06/03 15:17:40;;;;;;;6.33;5.80;;;26.90;91.60;;;;;;4938844;29;20474;-69
2021/06/03 15:20:11;;;;;;;5.93;5.73;;;26.90;91.10;;;;;;4938107;29;20469;-69
2021/06/03 15:22:37;;;;;;;5.50;5.20;;;26.90;91.00;;;;;;4937785;29;20908;-69
2021/06/03 15:25:05;;;;;;;6.13;5.83;;;26.80;90.50;;;;;;4938353;29;20470;-69
2021/06/03 15:27:31;;;;;;;5.63;5.10;;;26.80;90.70;;;;;;4938484;29;20476;-69
2021/06/03 15:29:58;;;;;;;5.60;5.40;;;26.80;90.90;;;;;;4937982;29;20489;-69
2021/06/03 15:32:24;;;;;;;5.73;5.43;;;26.70;90.80;;;;;;4938132;29;20559;-69
2021/06/03 15:34:50;;;;;;;6.40;5.90;;;26.70;91.10;;;;;;4937913;29;20469;-69
2021/06/03 15:37:17;;;;;;;5.47;5.07;;;26.70;90.90;;;;;;4937744;29;20458;-69
2021/06/03 15:39:44;;;;;;;6.30;6.00;;;26.60;91.00;;;;;;4938094;29;20528;-69
2021/06/03 15:42:11;;;;;;;5.97;5.63;;;26.60;91.10;;;;;;4937738;29;20493;-69
2021/06/03 15:44:38;;;;;;;5.53;5.23;;;26.60;90.90;;;;;;4938011;29;20496;-69
2021/06/03 15:47:04;;;;;;;5.70;5.40;;;26.50;91.10;;;;;;4937919;29;20466;-69
2021/06/03 15:49:32;;;;;;;5.87;5.67;;;26.40;91.50;;;;;;4937625;29;20528;-69
2021/06/03 15:52:05;;;;;;;5.43;5.13;;;26.40;91.10;;;;;;4936981;29;20496;-69
2021/06/03 15:54:35;;;;;;;5.40;5.00;;;26.30;91.20;;;;;;4937721;29;20550;-69
2021/06/03 15:57:02;;;;;;;5.53;5.27;;;26.20;90.90;;;;;;4937881;29;20795;-69
2021/06/03 15:59:28;;;;;;;5.50;5.10;;;26.20;91.40;;;;;;4937733;29;20949;-69
2021/06/03 16:01:54;;;;;;;5.80;5.50;;;26.20;91.40;;;;;;4937554;29;20543;-70
2021/06/03 16:04:21;;;;;;;5.53;5.33;;;26.20;91.80;;;;;;4937918;29;20797;-70
2021/06/03 16:06:47;;;;;;;6.40;6.10;;;26.20;91.40;;;;;;4936890;28;20493;-70
2021/06/03 16:09:13;;;;;;;5.13;5.03;;;26.10;91.30;;;;;;4937849;29;20963;-70
2021/06/03 16:11:41;;;;;;;6.13;5.83;;;26.20;91.50;;;;;;4937358;29;20500;-69
2021/06/03 16:14:07;;;;;;;5.50;5.13;;;26.10;91.40;;;;;;4937745;29;20673;-70
2021/06/03 16:16:33;;;;;;;6.70;6.30;;;26.10;91.50;;;;;;4937528;29;20970;-70
2021/06/03 16:18:59;;;;;;;6.10;5.60;;;26.10;91.80;;;;;;4937530;29;20469;-70
2021/06/03 16:21:26;;;;;;;5.77;5.53;;;26.10;91.70;;;;;;4937090;29;20560;-70
2021/06/03 16:23:52;;;;;;;5.53;5.33;;;26.00;91.80;;;;;;4936971;29;20482;-70
2021/06/03 16:26:18;;;;;;;5.80;5.50;;;26.00;92.30;;;;;;4937147;29;20962;-70
2021/06/03 16:28:46;;;;;;;5.57;5.37;;;26.00;91.80;;;;;;4937425;29;20466;-70
2021/06/03 16:31:12;;;;;;;6.23;5.73;;;26.00;92.10;;;;;;4937747;29;20792;-70
2021/06/03 16:33:38;;;;;;;5.77;5.47;;;26.00;92.30;;;;;;4937189;29;20469;-70
2021/06/03 16:36:05;;;;;;;5.87;5.67;;;26.00;92.40;;;;;;4936837;29;20465;-70
2021/06/03 16:38:31;;;;;;;5.93;5.63;;;26.00;92.50;;;;;;4937304;29;20469;-70
2021/06/03 16:40:58;;;;;;;6.50;6.13;;;26.00;92.40;;;;;;4937592;29;20481;-70
2021/06/03 16:43:25;;;;;;;7.17;6.60;;;26.00;92.50;;;;;;4937351;29;20520;-70
2021/06/03 16:45:53;;;;;;;5.33;5.10;;;25.90;92.90;;;;;;4939157;29;20925;-70
2021/06/03 16:48:25;;;;;;;5.67;5.47;;;25.80;92.40;;;;;;4938059;29;20469;-69
2021/06/03 16:50:52;;;;;;;6.40;6.10;;;25.80;92.50;;;;;;4937060;29;20999;-70
2021/06/03 16:53:19;;;;;;;7.67;7.27;;;25.80;92.80;;;;;;4937489;29;20875;-70
2021/06/03 16:55:46;;;;;;;6.73;6.40;;;25.70;93.30;;;;;;4943733;29;20910;-69
2021/06/03 16:58:12;;;;;;;5.47;5.27;;;25.60;93.40;;;;;;4945601;29;20525;-70
2021/06/03 17:00:41;;;;;;;6.60;4.37;;;25.50;93.80;;;;;;4945731;29;20799;-69